createdAt,value
2018-06-28T00:00:33.515Z,19.10
2018-06-28T00:03:07.798Z,19.10
2018-06-28T00:08:16.335Z,19.00
2018-06-28T00:10:50.575Z,19.00
2018-06-28T00:13:24.903Z,19.00
2018-06-28T00:15:59.098Z,18.90
2018-06-28T00:21:07.755Z,18.90
2018-06-28T00:23:42.148Z,18.90
2018-06-28T00:26:16.416Z,19.00
2018-06-28T00:28:50.611Z,19.00
2018-06-28T00:31:24.804Z,19.00
2018-06-28T00:33:59.154Z,19.00
2018-06-28T00:39:09.027Z,19.00
2018-06-28T00:41:43.198Z,19.00
2018-06-28T00:44:17.490Z,19.00
2018-06-28T00:46:51.950Z,18.90
2018-06-28T00:49:26.242Z,19.00
2018-06-28T00:52:00.639Z,19.00
2018-06-28T00:54:34.803Z,19.00
2018-06-28T00:57:09.069Z,18.90
2018-06-28T00:59:43.407Z,18.90
2018-06-28T01:02:17.807Z,18.80
2018-06-28T01:04:52.070Z,18.80
2018-06-28T01:07:26.404Z,18.70
2018-06-28T01:10:00.835Z,18.70
2018-06-28T01:12:35.122Z,18.70
2018-06-28T01:15:09.441Z,18.60
2018-06-28T01:17:43.694Z,18.60
2018-06-28T01:20:17.966Z,18.60
2018-06-28T01:22:52.289Z,18.60
2018-06-28T01:25:26.591Z,18.50
2018-06-28T01:28:00.887Z,18.50
2018-06-28T01:30:35.287Z,18.50
2018-06-28T01:33:09.559Z,18.40
2018-06-28T01:35:43.767Z,18.30
2018-06-28T01:38:17.943Z,18.30
2018-06-28T01:40:52.098Z,18.10
2018-06-28T01:43:41.734Z,17.90
2018-06-28T01:46:16.956Z,18.10
2018-06-28T01:48:51.237Z,18.00
2018-06-28T01:51:25.523Z,18.00
2018-06-28T01:53:59.846Z,18.00
2018-06-28T01:56:34.145Z,17.90
2018-06-28T01:59:08.423Z,17.90
2018-06-28T02:01:42.755Z,17.90
2018-06-28T02:04:17.102Z,17.80
2018-06-28T02:06:51.527Z,17.80
2018-06-28T02:09:25.869Z,17.80
2018-06-28T02:12:00.291Z,17.70
2018-06-28T02:14:34.626Z,17.70
2018-06-28T02:17:08.818Z,17.70
2018-06-28T02:19:43.042Z,17.60
2018-06-28T02:22:17.375Z,17.70
2018-06-28T02:24:51.679Z,17.70
2018-06-28T02:27:26.066Z,17.60
2018-06-28T02:30:00.357Z,17.50
2018-06-28T02:32:34.693Z,17.50
2018-06-28T02:37:43.331Z,17.40
2018-06-28T02:40:17.474Z,17.40
2018-06-28T02:42:51.778Z,17.50
2018-06-28T02:45:26.059Z,17.40
2018-06-28T02:48:00.315Z,17.40
2018-06-28T02:50:34.586Z,17.30
2018-06-28T02:53:08.975Z,17.30
2018-06-28T02:55:43.354Z,17.20
2018-06-28T02:58:17.606Z,17.20
2018-06-28T03:00:51.801Z,17.10
2018-06-28T03:03:26.195Z,17.10
2018-06-28T03:06:00.568Z,17.00
2018-06-28T03:11:09.143Z,17.10
2018-06-28T03:16:17.938Z,16.90
2018-06-28T03:18:52.358Z,16.90
2018-06-28T03:21:26.675Z,16.90
2018-06-28T03:24:01.071Z,16.90
2018-06-28T03:26:35.338Z,16.70
2018-06-28T03:29:09.749Z,16.70
2018-06-28T03:31:43.999Z,16.80
2018-06-28T03:34:18.422Z,16.80
2018-06-28T03:36:52.880Z,16.70
2018-06-28T03:39:27.043Z,16.70
2018-06-28T03:42:01.299Z,16.70
2018-06-28T03:44:35.650Z,16.60
2018-06-28T03:47:09.975Z,16.60
2018-06-28T03:49:44.154Z,16.60
2018-06-28T03:52:18.358Z,16.60
2018-06-28T03:54:52.799Z,16.60
2018-06-28T03:57:27.044Z,16.60
2018-06-28T04:00:01.350Z,16.60
2018-06-28T04:02:35.649Z,16.60
2018-06-28T04:05:09.919Z,16.50
2018-06-28T04:07:44.082Z,16.50
2018-06-28T04:10:18.382Z,16.30
2018-06-28T04:12:52.682Z,16.60
2018-06-28T04:15:26.915Z,16.70
2018-06-28T04:18:01.217Z,16.70
2018-06-28T04:20:35.491Z,16.70
2018-06-28T04:23:09.782Z,16.80
2018-06-28T04:25:44.165Z,16.80
2018-06-28T04:28:18.379Z,16.70
2018-06-28T04:30:52.694Z,16.80
2018-06-28T04:33:27.013Z,16.80
2018-06-28T04:36:01.731Z,16.90
2018-06-28T04:38:36.018Z,16.90
2018-06-28T04:41:10.345Z,16.90
2018-06-28T04:43:44.650Z,17.00
2018-06-28T04:46:19.031Z,17.00
2018-06-28T04:48:53.287Z,17.00
2018-06-28T04:51:27.538Z,17.00
2018-06-28T04:54:01.899Z,17.10
2018-06-28T04:56:36.140Z,17.00
2018-06-28T04:59:10.494Z,17.10
2018-06-28T05:01:44.751Z,17.10
2018-06-28T05:04:19.107Z,17.20
2018-06-28T05:06:53.234Z,17.20
2018-06-28T05:09:27.671Z,17.20
2018-06-28T05:12:01.927Z,17.40
2018-06-28T05:14:36.106Z,17.40
2018-06-28T05:17:10.290Z,17.50
2018-06-28T05:19:44.486Z,17.60
2018-06-28T05:22:18.727Z,17.70
2018-06-28T05:24:53.010Z,17.80
2018-06-28T05:27:27.306Z,17.90
2018-06-28T05:30:01.646Z,18.00
2018-06-28T05:32:35.951Z,18.00
2018-06-28T05:35:10.308Z,18.10
2018-06-28T05:37:44.531Z,18.20
2018-06-28T05:40:18.850Z,18.30
2018-06-28T05:42:53.083Z,18.40
2018-06-28T05:45:27.467Z,18.50
2018-06-28T05:48:01.728Z,18.60
2018-06-28T05:50:36.015Z,18.70
2018-06-28T05:55:44.358Z,18.70
2018-06-28T05:58:18.821Z,18.80
2018-06-28T06:00:53.111Z,18.80
2018-06-28T06:03:27.422Z,19.00
2018-06-28T06:06:01.707Z,19.00
2018-06-28T06:08:35.923Z,19.10
2018-06-28T06:13:44.222Z,19.20
2018-06-28T06:16:18.433Z,19.30
2018-06-28T06:18:52.758Z,19.40
2018-06-28T06:21:27.174Z,19.50
2018-06-28T06:24:01.715Z,19.50
2018-06-28T06:26:35.918Z,19.60
2018-06-28T06:29:10.155Z,19.70
2018-06-28T06:31:44.357Z,19.60
2018-06-28T06:34:18.737Z,19.80
2018-06-28T06:36:52.943Z,19.90
2018-06-28T06:39:27.562Z,19.90
2018-06-28T06:42:01.702Z,19.90
2018-06-28T06:44:36.028Z,20.00
2018-06-28T06:47:10.355Z,20.10
2018-06-28T06:49:44.663Z,20.10
2018-06-28T06:52:19.259Z,20.10
2018-06-28T06:54:53.563Z,20.10
2018-06-28T06:57:27.846Z,20.20
2018-06-28T07:00:02.158Z,20.30
2018-06-28T07:02:36.314Z,20.40
2018-06-28T07:05:10.637Z,20.50
2018-06-28T07:07:44.888Z,20.50
2018-06-28T07:10:19.398Z,20.60
2018-06-28T07:12:53.438Z,20.60
2018-06-28T07:15:27.721Z,20.70
2018-06-28T07:18:01.935Z,20.80
2018-06-28T07:20:36.376Z,20.80
2018-06-28T07:23:10.767Z,20.80
2018-06-28T07:25:45.107Z,21.00
2018-06-28T07:28:19.470Z,21.00
2018-06-28T07:30:53.989Z,21.10
2018-06-28T07:33:28.138Z,21.20
2018-06-28T07:36:02.614Z,21.30
2018-06-28T07:38:36.858Z,21.40
2018-06-28T07:41:11.040Z,21.40
2018-06-28T07:43:45.283Z,21.50
2018-06-28T07:46:19.559Z,21.60
2018-06-28T07:48:53.763Z,21.70
2018-06-28T07:51:27.995Z,21.80
2018-06-28T07:54:02.666Z,21.90
2018-06-28T07:56:36.942Z,21.90
2018-06-28T07:59:11.274Z,22.00
2018-06-28T08:01:45.584Z,22.10
2018-06-28T08:04:19.888Z,22.30
2018-06-28T08:06:54.147Z,22.40
2018-06-28T08:09:28.358Z,22.50
2018-06-28T08:12:02.751Z,22.60
2018-06-28T08:14:36.991Z,22.70
2018-06-28T08:17:11.331Z,22.90
2018-06-28T08:19:45.585Z,23.00
2018-06-28T08:22:19.914Z,23.10
2018-06-28T08:24:54.155Z,23.20
2018-06-28T08:27:28.546Z,23.20
2018-06-28T08:30:02.822Z,23.40
2018-06-28T08:32:37.154Z,23.40
2018-06-28T08:35:11.530Z,23.50
2018-06-28T08:37:45.839Z,23.60
2018-06-28T08:40:20.291Z,23.50
2018-06-28T08:42:54.671Z,23.70
2018-06-28T08:45:28.990Z,23.90
2018-06-28T08:48:03.378Z,23.90
2018-06-28T08:50:38.066Z,24.10
2018-06-28T08:53:12.455Z,24.10
2018-06-28T08:55:46.835Z,24.20
2018-06-28T08:58:21.119Z,24.30
2018-06-28T09:00:55.340Z,24.20
2018-06-28T09:03:29.529Z,24.30
2018-06-28T09:06:03.915Z,24.40
2018-06-28T09:08:38.209Z,24.50
2018-06-28T09:11:12.538Z,24.60
2018-06-28T09:13:46.806Z,24.70
2018-06-28T09:16:21.092Z,24.80
2018-06-28T09:18:55.455Z,24.80
2018-06-28T09:21:29.670Z,24.80
2018-06-28T09:24:04.006Z,25.00
2018-06-28T09:26:38.356Z,25.00
2018-06-28T09:29:12.502Z,25.20
2018-06-28T09:31:46.795Z,25.30
2018-06-28T09:34:21.082Z,25.40
2018-06-28T09:36:55.370Z,25.50
2018-06-28T09:39:29.743Z,25.50
2018-06-28T09:42:04.175Z,25.50
2018-06-28T09:47:12.414Z,25.80
2018-06-28T09:52:20.723Z,26.00
2018-06-28T09:54:55.067Z,26.00
2018-06-28T09:57:29.321Z,26.20
2018-06-28T10:00:04.591Z,26.40
2018-06-28T10:02:38.731Z,26.40
2018-06-28T10:05:13.134Z,26.30
2018-06-28T10:07:47.438Z,26.40
2018-06-28T10:10:21.687Z,26.50
2018-06-28T10:12:56.059Z,26.60
2018-06-28T10:15:30.327Z,26.70
2018-06-28T10:18:04.639Z,26.80
2018-06-28T10:20:38.810Z,26.90
2018-06-28T10:23:13.081Z,27.30
2018-06-28T10:25:47.334Z,27.20
2018-06-28T10:28:21.642Z,26.90
2018-06-28T10:30:56.075Z,27.10
2018-06-28T10:33:30.335Z,27.40
2018-06-28T10:36:04.767Z,27.50
2018-06-28T10:38:39.142Z,27.60
2018-06-28T10:41:13.361Z,27.60
2018-06-28T10:43:47.691Z,27.80
2018-06-28T10:46:21.979Z,27.70
2018-06-28T10:48:56.206Z,27.60
2018-06-28T10:51:30.338Z,27.50
2018-06-28T10:54:04.652Z,27.60
2018-06-28T10:56:38.922Z,27.70
2018-06-28T10:59:13.166Z,28.00
2018-06-28T11:01:47.487Z,28.10
2018-06-28T11:04:21.798Z,28.30
2018-06-28T11:06:56.121Z,28.60
2018-06-28T11:09:30.510Z,28.90
2018-06-28T11:12:04.756Z,28.80
2018-06-28T11:14:39.058Z,28.70
2018-06-28T11:17:13.314Z,28.80
2018-06-28T11:19:47.745Z,29.10
2018-06-28T11:22:21.902Z,29.30
2018-06-28T11:24:56.291Z,29.20
2018-06-28T11:27:30.694Z,29.30
2018-06-28T11:30:05.149Z,29.50
2018-06-28T11:32:39.263Z,29.80
2018-06-28T11:35:13.674Z,30.00
2018-06-28T11:40:21.987Z,30.20
2018-06-28T11:42:56.263Z,30.20
2018-06-28T11:45:30.622Z,30.30
2018-06-28T11:48:05.015Z,30.20
2018-06-28T11:50:39.245Z,30.30
2018-06-28T11:53:13.542Z,30.40
2018-06-28T11:55:47.973Z,29.50
2018-06-28T11:58:22.303Z,29.30
2018-06-28T12:00:56.811Z,29.00
2018-06-28T12:03:31.263Z,29.00
2018-06-28T12:06:05.490Z,28.30
2018-06-28T12:08:39.790Z,29.10
2018-06-28T12:11:14.210Z,29.20
2018-06-28T12:13:48.591Z,29.20
2018-06-28T12:16:22.870Z,28.80
2018-06-28T12:18:57.267Z,28.70
2018-06-28T12:21:31.402Z,29.20
2018-06-28T12:24:05.957Z,29.00
2018-06-28T12:26:40.185Z,28.80
2018-06-28T12:29:14.534Z,28.80
2018-06-28T12:31:48.670Z,29.50
2018-06-28T12:34:22.983Z,29.60
2018-06-28T12:36:57.127Z,30.00
2018-06-28T12:39:31.463Z,30.20
2018-06-28T12:42:05.990Z,30.60
2018-06-28T12:44:40.294Z,30.10
2018-06-28T12:47:35.606Z,30.20
2018-06-28T12:50:09.864Z,29.90
2018-06-28T12:52:47.595Z,29.30
2018-06-28T12:55:22.343Z,29.00
2018-06-28T12:57:57.770Z,28.70
2018-06-28T13:00:31.903Z,28.60
2018-06-28T13:03:06.355Z,28.90
2018-06-28T13:05:40.679Z,28.90
2018-06-28T13:08:30.118Z,28.90
2018-06-28T13:11:04.413Z,28.80
2018-06-28T13:13:39.400Z,29.50
2018-06-28T13:16:14.694Z,29.70
2018-06-28T13:18:49.336Z,29.60
2018-06-28T13:21:23.601Z,29.40
2018-06-28T13:23:57.902Z,29.10
2018-06-28T13:26:32.215Z,29.30
2018-06-28T13:29:06.487Z,29.80
2018-06-28T13:31:40.619Z,30.20
2018-06-28T13:34:14.984Z,30.30
2018-06-28T13:36:49.382Z,30.50
2018-06-28T13:41:57.973Z,30.90
2018-06-28T13:47:06.342Z,30.30
2018-06-28T13:49:40.618Z,30.60
2018-06-28T13:52:15.054Z,30.00
2018-06-28T13:54:49.293Z,30.10
2018-06-28T13:57:23.614Z,30.50
2018-06-28T13:59:58.046Z,30.50
2018-06-28T14:02:32.375Z,30.70
2018-06-28T14:05:06.942Z,30.80
2018-06-28T14:07:41.207Z,31.20
2018-06-28T14:10:15.598Z,31.30
2018-06-28T14:12:50.262Z,31.40
2018-06-28T14:15:24.546Z,31.00
2018-06-28T14:17:58.822Z,31.00
2018-06-28T14:20:33.254Z,31.00
2018-06-28T14:23:07.467Z,31.30
2018-06-28T14:25:41.640Z,30.70
2018-06-28T14:28:15.962Z,30.70
2018-06-28T14:30:50.348Z,31.20
2018-06-28T14:33:24.735Z,31.40
2018-06-28T14:35:59.029Z,31.50
2018-06-28T14:38:33.309Z,30.40
2018-06-28T14:41:08.202Z,30.60
2018-06-28T14:43:42.392Z,31.20
2018-06-28T14:46:16.672Z,31.00
2018-06-28T14:51:24.930Z,31.60
2018-06-28T14:53:59.259Z,31.60
2018-06-28T14:56:33.562Z,30.20
2018-06-28T14:59:07.914Z,31.70
2018-06-28T15:01:42.247Z,31.90
2018-06-28T15:04:16.690Z,31.90
2018-06-28T15:06:50.974Z,31.70
2018-06-28T15:09:25.283Z,31.70
2018-06-28T15:11:59.729Z,31.80
2018-06-28T15:14:34.031Z,31.60
2018-06-28T15:17:08.403Z,31.90
2018-06-28T15:19:42.667Z,32.10
2018-06-28T15:22:16.905Z,31.90
2018-06-28T15:24:51.182Z,32.10
2018-06-28T15:27:25.469Z,31.90
2018-06-28T15:29:59.711Z,32.00
2018-06-28T15:32:33.894Z,32.00
2018-06-28T15:35:08.289Z,32.20
2018-06-28T15:37:42.797Z,32.10
2018-06-28T15:40:17.299Z,32.10
2018-06-28T15:42:51.702Z,32.10
2018-06-28T15:45:26.106Z,32.10
2018-06-28T15:48:00.387Z,31.80
2018-06-28T15:50:34.662Z,32.20
2018-06-28T15:53:09.006Z,32.10
2018-06-28T15:55:43.281Z,31.90
2018-06-28T15:58:17.582Z,32.10
2018-06-28T16:00:51.855Z,31.60
2018-06-28T16:03:26.062Z,31.70
2018-06-28T16:06:00.341Z,31.50
2018-06-28T16:08:34.800Z,31.40
2018-06-28T16:11:09.227Z,31.70
2018-06-28T16:13:43.475Z,31.60
2018-06-28T16:16:17.627Z,31.80
2018-06-28T16:18:51.943Z,31.90
2018-06-28T16:21:26.091Z,31.70
2018-06-28T16:24:00.350Z,31.90
2018-06-28T16:26:34.706Z,31.60
2018-06-28T16:29:08.921Z,31.40
2018-06-28T16:31:43.362Z,31.30
2018-06-28T16:34:17.621Z,31.30
2018-06-28T16:36:51.974Z,31.80
2018-06-28T16:39:26.305Z,31.80
2018-06-28T16:42:00.510Z,31.90
2018-06-28T16:44:35.043Z,32.00
2018-06-28T16:49:43.139Z,31.80
2018-06-28T16:52:17.371Z,31.90
2018-06-28T16:54:51.640Z,32.10
2018-06-28T16:57:25.942Z,32.10
2018-06-28T17:00:00.636Z,31.90
2018-06-28T17:02:34.976Z,31.70
2018-06-28T17:05:09.230Z,31.60
2018-06-28T17:07:43.508Z,31.50
2018-06-28T17:10:17.756Z,31.30
2018-06-28T17:12:52.076Z,31.70
2018-06-28T17:15:26.306Z,31.70
2018-06-28T17:18:00.725Z,31.60
2018-06-28T17:20:35.112Z,31.60
2018-06-28T17:23:09.298Z,31.50
2018-06-28T17:28:17.629Z,31.10
2018-06-28T17:30:51.938Z,31.10
2018-06-28T17:33:26.270Z,31.20
2018-06-28T17:36:00.550Z,30.80
2018-06-28T17:38:34.858Z,30.50
2018-06-28T17:41:09.131Z,30.30
2018-06-28T17:43:43.390Z,30.10
2018-06-28T17:46:17.616Z,30.10
2018-06-28T17:48:51.938Z,30.10
2018-06-28T17:51:26.195Z,30.30
2018-06-28T17:54:00.502Z,30.40
2018-06-28T17:56:34.836Z,30.20
2018-06-28T17:59:09.074Z,30.20
2018-06-28T18:01:43.339Z,30.00
2018-06-28T18:04:17.570Z,30.30
2018-06-28T18:06:51.867Z,30.00
2018-06-28T18:09:26.430Z,29.60
2018-06-28T18:12:00.698Z,29.60
2018-06-28T18:14:35.089Z,29.60
2018-06-28T18:17:09.471Z,29.60
2018-06-28T18:19:43.698Z,29.50
2018-06-28T18:22:17.928Z,29.20
2018-06-28T18:24:52.231Z,29.20
2018-06-28T18:27:26.501Z,29.00
2018-06-28T18:30:00.705Z,28.70
2018-06-28T18:32:35.106Z,28.60
2018-06-28T18:35:09.397Z,28.40
2018-06-28T18:37:43.643Z,28.50
2018-06-28T18:40:18.079Z,28.30
2018-06-28T18:42:52.380Z,28.30
2018-06-28T18:45:26.659Z,28.30
2018-06-28T18:48:01.102Z,28.00
2018-06-28T18:50:35.378Z,28.00
2018-06-28T18:53:09.620Z,27.90
2018-06-28T18:55:43.906Z,27.80
2018-06-28T18:58:18.245Z,27.60
2018-06-28T19:00:52.418Z,27.40
2018-06-28T19:03:26.697Z,27.50
2018-06-28T19:06:01.023Z,27.40
2018-06-28T19:08:35.434Z,27.40
2018-06-28T19:11:09.498Z,27.30
2018-06-28T19:13:49.271Z,27.20
2018-06-28T19:16:29.173Z,27.00
2018-06-28T19:19:03.306Z,26.90
2018-06-28T19:21:42.950Z,26.90
2018-06-28T19:24:17.959Z,26.80
2018-06-28T19:26:52.082Z,26.70
2018-06-28T19:29:32.119Z,26.60
2018-06-28T19:32:11.868Z,26.50
2018-06-28T19:34:46.234Z,26.40
2018-06-28T19:37:25.928Z,26.40
2018-06-28T19:40:05.766Z,26.30
2018-06-28T19:42:45.218Z,26.20
2018-06-28T19:45:19.379Z,26.10
2018-06-28T19:47:53.769Z,26.00
2018-06-28T19:50:33.486Z,25.90
2018-06-28T19:53:10.514Z,25.80
2018-06-28T19:55:44.826Z,25.70
2018-06-28T19:58:19.106Z,25.70
2018-06-28T20:00:58.939Z,25.60
2018-06-28T20:03:38.590Z,25.60
2018-06-28T20:06:12.874Z,25.30
2018-06-28T20:08:47.270Z,25.20
2018-06-28T20:11:21.674Z,25.20
2018-06-28T20:14:01.578Z,25.10
2018-06-28T20:16:41.110Z,25.10
2018-06-28T20:19:20.702Z,25.00
2018-06-28T20:21:54.889Z,24.70
2018-06-28T20:24:29.306Z,24.70
2018-06-28T20:27:09.127Z,24.70
2018-06-28T20:29:48.765Z,24.60
2018-06-28T20:34:35.997Z,24.60
2018-06-28T20:37:10.200Z,24.50
2018-06-28T20:39:44.515Z,24.30
2018-06-28T20:42:18.782Z,24.30
2018-06-28T20:44:53.151Z,24.30
2018-06-28T20:47:27.422Z,24.10
2018-06-28T20:50:01.602Z,24.10
2018-06-28T20:52:35.746Z,24.00
2018-06-28T20:55:10.084Z,23.90
2018-06-28T20:57:44.278Z,23.80
2018-06-28T21:00:18.561Z,23.70
2018-06-28T21:02:52.858Z,23.60
2018-06-28T21:05:27.181Z,23.60
2018-06-28T21:08:01.419Z,23.60
2018-06-28T21:10:35.730Z,23.50
2018-06-28T21:13:10.027Z,23.50
2018-06-28T21:15:44.350Z,23.40
2018-06-28T21:18:18.538Z,23.20
2018-06-28T21:20:52.946Z,23.10
2018-06-28T21:23:27.175Z,23.10
2018-06-28T21:26:02.339Z,23.00
2018-06-28T21:28:36.459Z,23.00
2018-06-28T21:31:10.754Z,22.90
2018-06-28T21:33:45.086Z,23.00
2018-06-28T21:36:19.271Z,22.80
2018-06-28T21:38:53.571Z,22.90
2018-06-28T21:41:27.861Z,22.90
2018-06-28T21:44:02.054Z,22.80
2018-06-28T21:46:36.382Z,22.80
2018-06-28T21:49:10.731Z,22.80
2018-06-28T21:51:45.082Z,22.70
2018-06-28T21:54:19.462Z,22.60
2018-06-28T21:56:54.779Z,22.50
2018-06-28T21:59:29.590Z,22.40
2018-06-28T22:02:03.971Z,22.30
2018-06-28T22:04:38.206Z,22.30
2018-06-28T22:07:12.542Z,22.40
2018-06-28T22:09:46.821Z,22.30
2018-06-28T22:12:21.190Z,22.30
2018-06-28T22:14:55.618Z,22.30
2018-06-28T22:17:30.566Z,22.30
2018-06-28T22:20:04.866Z,22.20
2018-06-28T22:22:39.162Z,22.20
2018-06-28T22:25:13.442Z,22.20
2018-06-28T22:27:47.723Z,22.10
2018-06-28T22:30:22.702Z,22.10
2018-06-28T22:32:57.034Z,22.10
2018-06-28T22:35:31.158Z,22.10
2018-06-28T22:38:05.489Z,22.00
2018-06-28T22:40:39.942Z,22.00
2018-06-28T22:43:14.282Z,21.80
2018-06-28T22:45:48.645Z,21.80
2018-06-28T22:48:22.938Z,21.60
2018-06-28T22:53:31.311Z,21.50
2018-06-28T22:56:05.490Z,21.30
2018-06-28T22:58:39.819Z,21.20
2018-06-28T23:01:14.123Z,21.20
2018-06-28T23:03:48.450Z,21.20
2018-06-28T23:06:22.830Z,21.20
2018-06-28T23:08:57.110Z,21.10
2018-06-28T23:11:31.451Z,21.10
2018-06-28T23:14:05.751Z,21.00
2018-06-28T23:16:40.007Z,21.00
2018-06-28T23:19:14.439Z,20.90
2018-06-28T23:21:48.761Z,20.80
2018-06-28T23:24:23.078Z,20.70
2018-06-28T23:26:57.439Z,20.50
2018-06-28T23:29:31.679Z,20.50
2018-06-28T23:32:06.307Z,20.50
2018-06-28T23:34:40.538Z,20.40
2018-06-28T23:37:15.148Z,20.20
2018-06-28T23:39:49.434Z,20.20
2018-06-28T23:42:23.775Z,20.20
2018-06-28T23:44:58.058Z,20.20
2018-06-28T23:47:32.206Z,20.10
2018-06-28T23:50:07.358Z,19.90
2018-06-28T23:52:41.514Z,20.10
2018-06-28T23:55:15.686Z,19.90
2018-06-28T23:57:49.906Z,19.80
